createdAt,value
2017-07-19T00:00:14.852Z,11.10
2017-07-19T00:01:12.851Z,10.60
2017-07-19T00:02:09.954Z,12.90
2017-07-19T00:03:06.186Z,10.60
2017-07-19T00:04:02.609Z,9.80
2017-07-19T00:04:58.963Z,9.90
2017-07-19T00:05:55.299Z,11.00
2017-07-19T00:06:51.545Z,10.30
2017-07-19T00:07:47.774Z,11.00
2017-07-19T00:08:43.989Z,11.90
2017-07-19T00:09:40.227Z,9.20
2017-07-19T00:10:36.477Z,11.00
2017-07-19T00:11:32.695Z,11.20
2017-07-19T00:12:28.910Z,9.70
2017-07-19T00:13:25.161Z,10.60
2017-07-19T00:14:21.394Z,12.40
2017-07-19T00:15:17.618Z,10.50
2017-07-19T00:16:13.850Z,10.20
2017-07-19T00:17:10.103Z,9.80
2017-07-19T00:18:06.350Z,11.30
2017-07-19T00:19:02.574Z,10.70
2017-07-19T00:19:58.795Z,10.30
2017-07-19T00:20:55.030Z,10.30
2017-07-19T00:21:51.250Z,16.20
2017-07-19T00:22:47.473Z,9.90
2017-07-19T00:23:43.690Z,9.70
2017-07-19T00:24:39.905Z,11.70
2017-07-19T00:25:36.144Z,9.30
2017-07-19T00:26:32.379Z,10.80
2017-07-19T00:27:28.617Z,11.40
2017-07-19T00:28:24.854Z,12.50
2017-07-19T00:29:21.074Z,10.60
2017-07-19T00:30:17.311Z,10.50
2017-07-19T00:31:13.578Z,10.90
2017-07-19T00:32:09.798Z,9.80
2017-07-19T00:33:06.026Z,9.80
2017-07-19T00:34:02.268Z,12.00
2017-07-19T00:34:58.486Z,11.50
2017-07-19T00:35:54.722Z,13.00
2017-07-19T00:36:50.959Z,12.30
2017-07-19T00:37:47.182Z,13.70
2017-07-19T00:38:43.410Z,9.80
2017-07-19T00:39:39.638Z,10.80
2017-07-19T00:40:35.858Z,11.20
2017-07-19T00:41:32.086Z,12.40
2017-07-19T00:42:28.325Z,11.70
2017-07-19T00:43:24.550Z,12.00
2017-07-19T00:44:20.770Z,10.60
2017-07-19T00:45:17.002Z,12.10
2017-07-19T00:46:13.241Z,11.30
2017-07-19T00:47:09.493Z,11.30
2017-07-19T00:48:05.749Z,11.70
2017-07-19T00:49:01.983Z,11.30
2017-07-19T00:49:58.221Z,12.40
2017-07-19T00:50:54.462Z,10.70
2017-07-19T00:51:50.690Z,10.20
2017-07-19T00:52:46.944Z,10.50
2017-07-19T00:53:43.173Z,11.80
2017-07-19T00:54:39.416Z,12.00
2017-07-19T00:55:35.646Z,10.70
2017-07-19T00:56:31.878Z,11.60
2017-07-19T00:57:28.122Z,10.60
2017-07-19T00:58:24.353Z,11.60
2017-07-19T00:59:20.594Z,10.70
2017-07-19T01:00:16.845Z,11.00
2017-07-19T01:01:13.087Z,11.30
2017-07-19T01:02:09.326Z,11.50
2017-07-19T01:03:05.570Z,9.70
2017-07-19T01:04:01.805Z,10.60
2017-07-19T01:04:58.039Z,10.90
2017-07-19T01:05:54.262Z,11.40
2017-07-19T01:06:50.498Z,10.60
2017-07-19T01:07:46.730Z,9.70
2017-07-19T01:08:42.977Z,11.30
2017-07-19T01:09:39.219Z,12.40
2017-07-19T01:10:35.445Z,9.80
2017-07-19T01:11:31.686Z,10.40
2017-07-19T01:12:27.907Z,11.50
2017-07-19T01:13:24.137Z,9.60
2017-07-19T01:14:20.384Z,12.70
2017-07-19T01:15:16.615Z,11.30
2017-07-19T01:16:12.855Z,11.20
2017-07-19T01:17:09.099Z,12.50
2017-07-19T01:18:05.334Z,11.30
2017-07-19T01:19:01.582Z,11.50
2017-07-19T01:19:57.801Z,12.30
2017-07-19T01:20:54.035Z,11.50
2017-07-19T01:21:50.257Z,11.00
2017-07-19T01:22:46.482Z,12.00
2017-07-19T01:23:42.736Z,11.10
2017-07-19T01:24:38.984Z,11.20
2017-07-19T01:25:35.223Z,10.10
2017-07-19T01:26:31.485Z,10.80
2017-07-19T01:27:27.699Z,12.90
2017-07-19T01:28:23.930Z,12.90
2017-07-19T01:29:20.174Z,12.10
2017-07-19T01:30:16.402Z,12.30
2017-07-19T01:31:12.646Z,12.30
2017-07-19T01:32:08.867Z,12.30
2017-07-19T01:33:05.102Z,11.70
2017-07-19T01:34:01.324Z,11.50
2017-07-19T01:34:57.583Z,14.10
2017-07-19T01:35:53.821Z,12.00
2017-07-19T01:36:50.059Z,11.50
2017-07-19T01:37:46.290Z,13.00
2017-07-19T01:38:42.515Z,12.60
2017-07-19T01:39:38.754Z,10.50
2017-07-19T01:40:34.998Z,10.90
2017-07-19T01:41:31.222Z,11.50
2017-07-19T01:42:27.450Z,12.10
2017-07-19T01:43:23.677Z,11.50
2017-07-19T01:44:19.904Z,13.00
2017-07-19T01:45:16.163Z,13.20
2017-07-19T01:46:12.409Z,11.20
2017-07-19T01:47:08.647Z,11.90
2017-07-19T01:48:04.905Z,11.30
2017-07-19T01:49:01.142Z,12.90
2017-07-19T01:49:57.373Z,10.10
2017-07-19T01:50:53.667Z,12.20
2017-07-19T01:51:49.898Z,11.40
2017-07-19T01:52:46.134Z,11.70
2017-07-19T01:53:42.361Z,14.00
2017-07-19T01:54:38.594Z,11.80
2017-07-19T01:55:34.809Z,11.50
2017-07-19T01:56:31.050Z,12.90
2017-07-19T01:57:27.280Z,11.30
2017-07-19T01:58:23.539Z,10.90
2017-07-19T01:59:19.790Z,11.40
2017-07-19T02:00:16.010Z,11.70
2017-07-19T02:01:12.250Z,11.30
2017-07-19T02:02:08.469Z,11.30
2017-07-19T02:03:04.705Z,12.70
2017-07-19T02:04:00.926Z,17.60
2017-07-19T02:04:57.162Z,11.80
2017-07-19T02:05:53.423Z,12.10
2017-07-19T02:06:49.662Z,11.60
2017-07-19T02:07:45.903Z,11.40
2017-07-19T02:08:42.139Z,12.10
2017-07-19T02:09:38.390Z,12.30
2017-07-19T02:10:34.629Z,13.70
2017-07-19T02:11:30.861Z,11.80
2017-07-19T02:12:27.090Z,11.00
2017-07-19T02:13:23.310Z,11.90
2017-07-19T02:14:19.529Z,11.80
2017-07-19T02:15:15.760Z,12.30
2017-07-19T02:16:11.998Z,11.40
2017-07-19T02:17:08.246Z,12.10
2017-07-19T02:18:04.478Z,11.60
2017-07-19T02:19:00.706Z,13.00
2017-07-19T02:19:56.945Z,11.60
2017-07-19T02:20:53.172Z,12.20
2017-07-19T02:21:49.422Z,12.00
2017-07-19T02:22:45.651Z,12.00
2017-07-19T02:23:41.888Z,11.80
2017-07-19T02:24:38.105Z,11.50
2017-07-19T02:25:34.343Z,11.60
2017-07-19T02:26:30.562Z,12.40
2017-07-19T02:27:26.807Z,12.40
2017-07-19T02:28:23.046Z,11.40
2017-07-19T02:29:19.279Z,11.30
2017-07-19T02:30:15.506Z,11.80
2017-07-19T02:31:11.751Z,12.00
2017-07-19T02:32:07.965Z,11.80
2017-07-19T02:33:04.208Z,12.90
2017-07-19T02:34:00.434Z,10.90
2017-07-19T02:34:56.657Z,12.80
2017-07-19T02:35:52.887Z,12.50
2017-07-19T02:36:49.125Z,11.50
2017-07-19T02:37:45.366Z,12.00
2017-07-19T02:38:41.615Z,11.60
2017-07-19T02:39:37.866Z,13.10
2017-07-19T02:40:34.110Z,10.30
2017-07-19T02:41:30.350Z,12.10
2017-07-19T02:42:26.589Z,12.10
2017-07-19T02:43:22.818Z,12.80
2017-07-19T02:44:19.053Z,11.00
2017-07-19T02:45:15.282Z,12.30
2017-07-19T02:46:11.517Z,12.60
2017-07-19T02:47:07.743Z,13.00
2017-07-19T02:48:03.993Z,14.10
2017-07-19T02:49:00.221Z,11.60
2017-07-19T02:49:56.462Z,11.20
2017-07-19T02:50:52.689Z,12.10
2017-07-19T02:51:48.930Z,10.60
2017-07-19T02:52:45.166Z,12.40
2017-07-19T02:53:41.397Z,12.60
2017-07-19T02:54:37.623Z,12.80
2017-07-19T02:55:33.851Z,11.70
2017-07-19T02:56:30.082Z,11.70
2017-07-19T02:57:26.319Z,12.60
2017-07-19T02:58:22.562Z,11.30
2017-07-19T02:59:18.817Z,14.10
2017-07-19T03:00:15.043Z,12.50
2017-07-19T03:01:11.283Z,12.40
2017-07-19T03:02:07.524Z,16.80
2017-07-19T03:03:03.750Z,12.10
2017-07-19T03:04:00.018Z,12.10
2017-07-19T03:04:56.250Z,11.40
2017-07-19T03:05:52.482Z,11.30
2017-07-19T03:06:48.701Z,10.90
2017-07-19T03:07:44.935Z,12.90
2017-07-19T03:08:41.174Z,12.40
2017-07-19T03:09:37.430Z,12.70
2017-07-19T03:10:33.659Z,12.40
2017-07-19T03:11:29.894Z,12.00
2017-07-19T03:12:26.138Z,12.30
2017-07-19T03:13:22.365Z,13.30
2017-07-19T03:14:18.598Z,12.10
2017-07-19T03:15:14.823Z,12.50
2017-07-19T03:16:11.050Z,13.00
2017-07-19T03:17:07.285Z,13.20
2017-07-19T03:18:03.522Z,12.10
2017-07-19T03:18:59.753Z,13.20
2017-07-19T03:19:55.994Z,12.90
2017-07-19T03:20:52.217Z,11.60
2017-07-19T03:21:48.449Z,12.20
2017-07-19T03:22:44.666Z,12.50
2017-07-19T03:23:40.901Z,12.00
2017-07-19T03:24:37.164Z,12.50
2017-07-19T03:25:33.403Z,11.30
2017-07-19T03:26:29.642Z,13.80
2017-07-19T03:27:25.886Z,12.80
2017-07-19T03:28:22.110Z,12.80
2017-07-19T03:29:18.370Z,14.10
2017-07-19T03:30:14.611Z,12.60
2017-07-19T03:31:10.834Z,11.90
2017-07-19T03:32:07.078Z,13.20
2017-07-19T03:33:03.334Z,12.60
2017-07-19T03:33:59.567Z,12.40
2017-07-19T03:34:55.826Z,13.00
2017-07-19T03:35:52.064Z,13.30
2017-07-19T03:36:48.302Z,13.10
2017-07-19T03:37:44.538Z,12.70
2017-07-19T03:38:40.789Z,12.30
2017-07-19T03:39:37.022Z,11.50
2017-07-19T03:40:33.253Z,12.30
2017-07-19T03:41:29.495Z,14.80
2017-07-19T03:42:25.730Z,12.00
2017-07-19T03:43:21.954Z,13.30
2017-07-19T03:44:18.188Z,14.50
2017-07-19T03:45:14.439Z,13.80
2017-07-19T03:46:10.686Z,12.50
2017-07-19T03:47:06.914Z,13.50
2017-07-19T03:48:03.146Z,13.20
2017-07-19T03:48:59.382Z,12.00
2017-07-19T03:49:55.611Z,11.90
2017-07-19T03:50:51.878Z,15.80
2017-07-19T03:51:48.110Z,15.30
2017-07-19T03:52:44.342Z,15.00
2017-07-19T03:53:40.576Z,12.70
2017-07-19T03:54:36.812Z,18.30
2017-07-19T03:55:33.085Z,13.50
2017-07-19T03:56:29.323Z,14.50
2017-07-19T03:57:25.563Z,16.20
2017-07-19T03:58:21.795Z,12.90
2017-07-19T03:59:18.022Z,13.30
2017-07-19T04:00:14.254Z,14.90
2017-07-19T04:01:10.498Z,13.30
2017-07-19T04:02:06.744Z,14.90
2017-07-19T04:03:02.983Z,12.60
2017-07-19T04:03:59.223Z,13.70
2017-07-19T04:04:55.446Z,13.40
2017-07-19T04:05:51.681Z,13.30
2017-07-19T04:06:47.934Z,12.70
2017-07-19T04:07:44.170Z,12.70
2017-07-19T04:08:40.398Z,12.00
2017-07-19T04:09:36.621Z,13.80
2017-07-19T04:10:32.847Z,12.60
2017-07-19T04:11:29.070Z,12.80
2017-07-19T04:12:25.331Z,13.30
2017-07-19T04:13:21.555Z,13.80
2017-07-19T04:14:17.777Z,12.50
2017-07-19T04:15:14.007Z,11.60
2017-07-19T04:16:10.282Z,12.80
2017-07-19T04:17:06.521Z,12.50
2017-07-19T04:18:02.746Z,13.50
2017-07-19T04:18:58.978Z,11.70
2017-07-19T04:19:55.219Z,12.30
2017-07-19T04:20:51.458Z,13.00
2017-07-19T04:21:47.693Z,12.00
2017-07-19T04:22:43.934Z,16.40
2017-07-19T04:23:40.174Z,13.70
2017-07-19T04:24:36.582Z,13.40
2017-07-19T04:25:32.814Z,13.40
2017-07-19T04:26:29.115Z,12.30
2017-07-19T04:27:25.409Z,17.90
2017-07-19T04:28:21.708Z,14.90
2017-07-19T04:29:18.002Z,14.80
2017-07-19T04:30:14.286Z,14.50
2017-07-19T04:31:10.515Z,18.20
2017-07-19T04:32:06.757Z,14.30
2017-07-19T04:33:03.006Z,15.70
2017-07-19T04:33:59.238Z,14.40
2017-07-19T04:34:55.458Z,13.30
2017-07-19T04:35:51.674Z,17.60
2017-07-19T04:36:47.947Z,13.80
2017-07-19T04:37:44.167Z,13.60
2017-07-19T04:38:40.413Z,13.70
2017-07-19T04:39:36.646Z,15.40
2017-07-19T04:40:32.861Z,14.20
2017-07-19T04:41:29.082Z,14.40
2017-07-19T04:42:25.322Z,12.50
2017-07-19T04:43:21.575Z,18.40
2017-07-19T04:44:17.801Z,12.90
2017-07-19T04:45:14.034Z,13.60
2017-07-19T04:46:10.259Z,13.80
2017-07-19T04:47:06.485Z,14.20
2017-07-19T04:48:02.714Z,16.30
2017-07-19T04:48:58.945Z,12.10
2017-07-19T04:49:55.166Z,19.00
2017-07-19T04:50:51.398Z,15.20
2017-07-19T04:51:47.626Z,15.70
2017-07-19T04:52:43.895Z,12.90
2017-07-19T04:53:40.142Z,13.30
2017-07-19T04:54:36.378Z,12.40
2017-07-19T04:55:32.621Z,12.60
2017-07-19T04:56:28.850Z,13.00
2017-07-19T04:57:25.563Z,12.70
2017-07-19T04:58:21.773Z,12.80
2017-07-19T04:59:18.047Z,13.70
2017-07-19T05:00:14.313Z,12.80
2017-07-19T05:01:10.598Z,12.00
2017-07-19T05:02:06.843Z,11.40
2017-07-19T05:03:03.070Z,13.60
2017-07-19T05:03:59.292Z,11.90
2017-07-19T05:04:55.545Z,11.90
2017-07-19T05:05:51.779Z,11.80
2017-07-19T05:06:48.021Z,12.10
2017-07-19T05:07:44.242Z,12.20
2017-07-19T05:08:40.481Z,13.10
2017-07-19T05:09:36.707Z,11.00
2017-07-19T05:10:32.936Z,12.40
2017-07-19T05:11:29.173Z,11.50
2017-07-19T05:12:25.414Z,12.00
2017-07-19T05:13:21.641Z,11.60
2017-07-19T05:14:17.874Z,12.40
2017-07-19T05:15:14.102Z,11.70
2017-07-19T05:16:10.341Z,11.00
2017-07-19T05:17:06.561Z,11.80
2017-07-19T05:18:02.782Z,11.80
2017-07-19T05:18:59.022Z,12.30
2017-07-19T05:19:55.257Z,12.20
2017-07-19T05:20:51.489Z,11.80
2017-07-19T05:21:47.709Z,11.20
2017-07-19T07:45:25.418Z,12.00
2017-07-19T07:46:23.583Z,11.40
2017-07-19T07:47:20.106Z,11.40
2017-07-19T07:48:20.727Z,11.90
2017-07-19T07:49:17.937Z,11.30
2017-07-19T07:50:14.494Z,10.80
2017-07-19T07:51:11.017Z,12.20
2017-07-19T07:52:07.606Z,11.70
2017-07-19T07:53:03.867Z,10.70
2017-07-19T07:54:00.115Z,10.90
2017-07-19T07:54:56.357Z,10.90
2017-07-19T07:55:52.620Z,10.90
2017-07-19T07:56:48.864Z,10.80
2017-07-19T07:57:45.123Z,10.80
2017-07-19T07:58:41.378Z,10.50
2017-07-19T07:59:37.627Z,13.10
2017-07-19T08:00:33.899Z,10.20
2017-07-19T08:01:30.152Z,10.10
2017-07-19T08:02:26.421Z,9.60
2017-07-19T08:03:22.667Z,10.20
2017-07-19T08:04:18.907Z,10.70
2017-07-19T08:05:15.187Z,10.10
2017-07-19T08:06:11.463Z,13.60
2017-07-19T08:07:07.767Z,9.50
2017-07-19T08:08:04.014Z,9.30
2017-07-19T08:09:00.247Z,10.90
2017-07-19T08:09:56.482Z,10.40
2017-07-19T08:10:52.726Z,9.30
2017-07-19T08:11:48.995Z,10.10
2017-07-19T08:12:45.254Z,10.50
2017-07-19T08:13:41.493Z,11.10
2017-07-19T08:14:37.747Z,9.70
2017-07-19T08:15:33.994Z,10.00
2017-07-19T08:16:30.259Z,11.30
2017-07-19T08:17:26.511Z,11.10
2017-07-19T08:18:23.664Z,9.80
2017-07-19T08:19:19.906Z,9.80
2017-07-19T08:20:16.147Z,9.80
2017-07-19T08:21:12.410Z,10.50
2017-07-19T08:22:08.673Z,9.90
2017-07-19T08:23:04.943Z,10.70
2017-07-19T08:24:01.182Z,10.30
2017-07-19T08:24:57.441Z,14.10
2017-07-19T08:25:53.685Z,11.00
2017-07-19T08:26:49.941Z,9.90
2017-07-19T08:27:46.827Z,10.10
2017-07-19T08:28:43.059Z,10.40
2017-07-19T08:29:39.303Z,9.70
2017-07-19T08:30:35.548Z,9.90
2017-07-19T08:31:31.790Z,11.70
2017-07-19T08:32:28.072Z,8.60
2017-07-19T08:33:24.319Z,10.20
2017-07-19T08:34:20.560Z,10.10
2017-07-19T08:35:16.815Z,9.20
2017-07-19T08:36:13.058Z,10.00
2017-07-19T08:37:09.546Z,10.40
2017-07-19T08:38:05.802Z,9.70
2017-07-19T08:39:02.051Z,9.50
2017-07-19T08:39:58.482Z,9.00
2017-07-19T08:40:54.738Z,8.80
2017-07-19T08:41:50.982Z,9.20
2017-07-19T08:42:47.223Z,9.70
2017-07-19T08:43:43.495Z,9.30
2017-07-19T08:44:39.787Z,8.70
2017-07-19T08:45:36.035Z,9.40
2017-07-19T08:46:32.275Z,8.80
2017-07-19T08:47:28.518Z,8.30
2017-07-19T08:48:24.755Z,8.90
2017-07-19T08:49:21.022Z,9.10
2017-07-19T08:50:17.246Z,9.50
2017-07-19T08:51:13.492Z,9.20
2017-07-19T08:52:09.731Z,8.40
2017-07-19T08:53:05.970Z,8.60
2017-07-19T08:54:02.215Z,9.20
2017-07-19T08:54:58.463Z,9.00
2017-07-19T08:55:54.702Z,9.10
2017-07-19T08:56:50.931Z,7.80
2017-07-19T08:57:47.167Z,8.20
2017-07-19T08:58:43.406Z,9.20
2017-07-19T08:59:39.666Z,7.50
2017-07-19T09:00:35.898Z,8.40
2017-07-19T09:01:32.168Z,7.90
2017-07-19T09:02:28.407Z,8.10
2017-07-19T09:03:24.642Z,8.20
2017-07-19T09:04:20.919Z,8.30
2017-07-19T09:05:17.153Z,7.80
2017-07-19T09:06:13.390Z,7.80
2017-07-19T09:07:09.631Z,7.40
2017-07-19T09:08:05.865Z,7.70
2017-07-19T09:09:02.106Z,8.10
2017-07-19T09:09:58.390Z,8.60
2017-07-19T09:10:54.621Z,7.90
2017-07-19T09:11:50.864Z,7.90
2017-07-19T09:12:47.110Z,7.10
2017-07-19T09:13:43.347Z,7.00
2017-07-19T09:14:39.591Z,6.80
2017-07-19T09:15:35.838Z,7.60
2017-07-19T09:16:32.083Z,7.20
2017-07-19T09:17:28.335Z,7.40
2017-07-19T09:18:24.574Z,8.40
2017-07-19T09:19:20.835Z,7.70
2017-07-19T09:20:17.095Z,8.20
2017-07-19T09:21:13.351Z,7.80
2017-07-19T09:22:09.598Z,7.20
2017-07-19T09:23:05.844Z,7.30
2017-07-19T09:24:02.082Z,7.50
2017-07-19T09:24:58.323Z,11.70
2017-07-19T09:25:54.584Z,7.00
2017-07-19T09:26:50.810Z,8.10
2017-07-19T09:27:47.053Z,7.80
2017-07-19T09:28:43.294Z,8.30
2017-07-19T09:29:39.546Z,6.80
2017-07-19T09:30:35.814Z,6.50
2017-07-19T09:31:32.058Z,6.00
2017-07-19T09:32:28.306Z,6.90
2017-07-19T09:33:24.542Z,6.10
2017-07-19T09:34:20.790Z,6.80
2017-07-19T09:35:17.047Z,6.00
2017-07-19T09:36:13.302Z,6.30
2017-07-19T09:37:09.538Z,6.40
2017-07-19T09:38:05.778Z,8.00
2017-07-19T09:39:02.031Z,7.90
2017-07-19T09:39:58.311Z,6.50
2017-07-19T09:40:54.559Z,6.40
2017-07-19T09:41:50.810Z,6.20
2017-07-19T09:42:47.051Z,8.10
2017-07-19T09:43:43.287Z,14.70
2017-07-19T09:44:39.546Z,5.20
2017-07-19T09:45:35.783Z,6.00
2017-07-19T09:46:32.044Z,5.90
2017-07-19T09:47:28.299Z,5.10
2017-07-19T09:48:24.563Z,5.60
2017-07-19T09:49:20.813Z,5.60
2017-07-19T09:50:17.047Z,5.50
2017-07-19T09:51:13.400Z,9.90
2017-07-19T09:52:09.651Z,5.60
2017-07-19T09:53:05.895Z,9.60
2017-07-19T09:54:02.155Z,5.90
2017-07-19T09:54:58.410Z,6.40
2017-07-19T09:55:54.675Z,5.70
2017-07-19T09:56:50.971Z,6.00
2017-07-19T09:57:47.214Z,6.20
2017-07-19T09:58:43.448Z,6.20
2017-07-19T09:59:39.690Z,5.70
2017-07-19T10:00:35.958Z,5.80
2017-07-19T10:01:32.207Z,10.50
2017-07-19T10:02:28.458Z,6.50
2017-07-19T10:03:24.691Z,6.00
2017-07-19T10:04:20.931Z,5.70
2017-07-19T10:05:17.170Z,5.80
2017-07-19T10:06:13.514Z,5.60
2017-07-19T10:07:09.764Z,5.60
2017-07-19T10:08:06.024Z,6.20
2017-07-19T10:09:02.279Z,6.10
2017-07-19T10:09:58.574Z,6.20
2017-07-19T10:10:54.819Z,6.00
2017-07-19T10:11:51.071Z,5.90
2017-07-19T10:12:47.340Z,6.30
2017-07-19T10:13:43.587Z,5.30
2017-07-19T10:14:39.834Z,6.70
2017-07-19T10:15:36.108Z,6.60
2017-07-19T10:16:32.366Z,6.50
2017-07-19T10:17:28.622Z,5.40
2017-07-19T10:18:24.866Z,5.90
2017-07-19T10:19:21.102Z,6.60
2017-07-19T10:20:17.351Z,6.00
2017-07-19T10:21:13.609Z,5.50
2017-07-19T10:22:09.851Z,5.90
2017-07-19T10:23:06.099Z,6.10
2017-07-19T10:24:02.343Z,6.00
2017-07-19T10:24:58.594Z,5.20
2017-07-19T10:25:54.831Z,11.60
2017-07-19T10:26:51.084Z,6.10
2017-07-19T10:27:47.322Z,6.10
2017-07-19T10:28:43.579Z,6.40
2017-07-19T10:29:39.839Z,5.70
2017-07-19T10:30:36.082Z,6.10
2017-07-19T10:31:32.318Z,8.90
2017-07-19T10:32:28.576Z,13.20
2017-07-19T10:33:24.855Z,10.90
2017-07-19T10:34:21.102Z,6.00
2017-07-19T10:35:17.337Z,7.00
2017-07-19T10:36:13.571Z,6.10
2017-07-19T10:37:09.810Z,6.30
2017-07-19T10:38:06.051Z,5.80
2017-07-19T10:39:02.310Z,7.70
2017-07-19T10:39:59.138Z,5.40
2017-07-19T10:40:55.386Z,7.40
2017-07-19T10:41:51.646Z,6.70
2017-07-19T10:42:47.894Z,5.60
2017-07-19T10:43:44.154Z,5.70
2017-07-19T10:44:40.392Z,5.80
2017-07-19T10:45:36.634Z,5.80
2017-07-19T10:46:33.236Z,5.90
2017-07-19T10:47:29.495Z,6.60
2017-07-19T10:48:25.734Z,4.70
2017-07-19T10:49:22.002Z,5.60
2017-07-19T10:50:18.254Z,6.80
2017-07-19T10:51:14.507Z,6.30
2017-07-19T10:52:10.742Z,6.30
2017-07-19T10:53:06.987Z,6.80
2017-07-19T10:54:03.250Z,7.00
2017-07-19T10:54:59.493Z,5.10
2017-07-19T10:55:55.739Z,6.10
2017-07-19T10:56:51.987Z,5.70
2017-07-19T10:57:48.227Z,6.80
2017-07-19T10:58:44.475Z,7.90
2017-07-19T10:59:40.759Z,6.00
2017-07-19T11:00:36.994Z,5.70
2017-07-19T11:01:33.230Z,5.70
2017-07-19T11:02:29.467Z,6.80
2017-07-19T11:03:25.715Z,6.10
2017-07-19T11:04:22.096Z,5.90
2017-07-19T11:05:18.407Z,6.80
2017-07-19T11:06:14.662Z,6.10
2017-07-19T11:07:10.907Z,6.20
2017-07-19T11:08:07.143Z,5.90
2017-07-19T11:09:03.379Z,6.30
2017-07-19T11:09:59.662Z,6.10
2017-07-19T11:10:55.918Z,5.00
2017-07-19T11:11:52.156Z,5.50
2017-07-19T11:12:48.393Z,5.90
2017-07-19T11:13:44.639Z,6.20
2017-07-19T11:14:40.890Z,5.40
2017-07-19T11:15:37.131Z,5.40
2017-07-19T11:16:33.366Z,5.80
2017-07-19T11:17:29.606Z,5.90
2017-07-19T11:18:25.847Z,6.80
2017-07-19T11:19:22.095Z,5.70
2017-07-19T11:20:18.359Z,5.70
2017-07-19T11:21:14.603Z,7.50
2017-07-19T11:22:10.861Z,6.10
2017-07-19T11:23:07.102Z,5.60
2017-07-19T11:24:03.351Z,10.10
2017-07-19T11:24:59.606Z,6.00
2017-07-19T11:25:55.859Z,5.80
2017-07-19T11:26:52.105Z,6.30
2017-07-19T11:27:48.346Z,5.60
2017-07-19T11:28:44.597Z,6.90
2017-07-19T11:29:40.830Z,4.90
2017-07-19T11:30:37.094Z,5.80
2017-07-19T11:31:33.322Z,5.60
2017-07-19T11:32:29.568Z,5.50
2017-07-19T11:33:25.806Z,5.00
2017-07-19T11:34:22.052Z,5.30
2017-07-19T11:35:18.292Z,5.20
2017-07-19T11:36:14.554Z,9.80
2017-07-19T11:37:10.799Z,5.60
2017-07-19T11:38:07.034Z,4.90
2017-07-19T11:39:03.274Z,6.10
2017-07-19T11:39:59.523Z,5.70
2017-07-19T11:40:55.803Z,5.80
2017-07-19T11:41:52.047Z,5.40
2017-07-19T11:42:48.302Z,5.40
2017-07-19T11:43:44.534Z,6.40
2017-07-19T11:44:40.773Z,8.50
2017-07-19T11:45:37.010Z,6.90
2017-07-19T11:46:33.510Z,5.70
2017-07-19T11:47:29.758Z,6.80
2017-07-19T11:48:26.002Z,6.50
2017-07-19T11:49:22.250Z,5.20
2017-07-19T11:50:18.495Z,6.50
2017-07-19T11:51:14.758Z,6.80
2017-07-19T11:52:11.008Z,5.20
2017-07-19T11:53:07.250Z,7.30
2017-07-19T11:54:03.496Z,5.70
2017-07-19T11:54:59.740Z,6.40
2017-07-19T11:55:55.990Z,6.00
2017-07-19T11:56:52.247Z,7.00
2017-07-19T11:57:48.499Z,6.10
2017-07-19T11:58:44.730Z,6.00
2017-07-19T11:59:40.970Z,5.60
2017-07-19T12:00:37.202Z,5.40
2017-07-19T12:01:33.479Z,7.00
2017-07-19T12:02:29.738Z,6.20
2017-07-19T12:03:25.992Z,6.80
2017-07-19T12:04:22.230Z,6.50
2017-07-19T12:05:18.463Z,5.90
2017-07-19T12:06:14.706Z,5.70
2017-07-19T12:07:10.965Z,5.90
2017-07-19T12:08:07.207Z,5.30
2017-07-19T12:09:03.438Z,5.90
2017-07-19T12:09:59.682Z,5.50
2017-07-19T12:10:55.919Z,6.00
2017-07-19T12:11:52.168Z,5.50
2017-07-19T12:12:48.435Z,5.80
2017-07-19T12:13:44.691Z,5.40
2017-07-19T12:14:40.942Z,5.80
2017-07-19T12:15:37.191Z,5.10
2017-07-19T12:16:33.538Z,6.50
2017-07-19T12:17:29.798Z,5.80
2017-07-19T12:18:26.036Z,5.80
2017-07-19T12:19:22.287Z,6.30
2017-07-19T12:20:18.627Z,6.00
2017-07-19T12:21:14.999Z,6.20
2017-07-19T12:22:11.231Z,6.10
2017-07-19T12:23:07.527Z,7.00
2017-07-19T12:24:03.764Z,5.60
2017-07-19T12:25:00.027Z,5.80
2017-07-19T12:25:56.267Z,6.70
2017-07-19T12:26:52.502Z,5.70
2017-07-19T12:27:48.739Z,10.00
2017-07-19T12:28:44.998Z,5.80
2017-07-19T12:29:41.236Z,5.30
2017-07-19T12:30:37.491Z,5.60
2017-07-19T12:31:33.738Z,5.50
2017-07-19T12:32:29.983Z,6.00
2017-07-19T12:33:26.247Z,5.30
2017-07-19T12:34:22.510Z,5.50
2017-07-19T12:35:18.754Z,7.50
2017-07-19T12:36:15.002Z,5.80
2017-07-19T12:37:11.251Z,6.10
2017-07-19T12:38:07.503Z,5.50
2017-07-19T12:39:04.046Z,5.50
2017-07-19T12:40:00.335Z,6.50
2017-07-19T12:40:56.586Z,5.90
2017-07-19T12:41:52.835Z,5.30
2017-07-19T12:42:49.082Z,6.20
2017-07-19T12:43:45.358Z,6.20
2017-07-19T12:44:41.630Z,6.30
2017-07-19T12:45:37.875Z,11.20
2017-07-19T12:46:34.118Z,5.90
2017-07-19T12:47:30.373Z,5.50
2017-07-19T12:48:26.640Z,8.00
2017-07-19T12:49:22.871Z,5.90
2017-07-19T12:50:19.131Z,5.30
2017-07-19T12:51:15.386Z,5.40
2017-07-19T12:52:11.626Z,6.40
2017-07-19T12:53:07.898Z,6.00
2017-07-19T12:54:04.162Z,5.10
2017-07-19T12:55:00.422Z,5.90
2017-07-19T12:55:56.726Z,5.90
2017-07-19T12:56:52.967Z,6.40
2017-07-19T12:57:49.218Z,5.50
2017-07-19T12:58:45.466Z,6.40
2017-07-19T12:59:41.742Z,5.40
2017-07-19T13:00:37.999Z,7.70
2017-07-19T13:01:34.254Z,5.30
2017-07-19T13:02:30.511Z,5.50
2017-07-19T13:03:26.750Z,5.60
2017-07-19T13:04:22.990Z,6.20
2017-07-19T13:05:19.274Z,6.50
2017-07-19T13:06:15.526Z,5.30
2017-07-19T13:07:11.770Z,6.20
2017-07-19T13:08:08.026Z,5.50
2017-07-19T13:09:04.262Z,5.20
2017-07-19T13:10:00.508Z,5.90
2017-07-19T13:10:56.770Z,5.60
2017-07-19T13:11:53.011Z,5.60
2017-07-19T13:12:49.254Z,5.40
2017-07-19T13:13:45.555Z,6.20
2017-07-19T13:14:41.819Z,6.10
2017-07-19T13:15:38.095Z,5.70
2017-07-19T13:16:34.354Z,6.50
2017-07-19T13:17:30.598Z,6.90
2017-07-19T13:18:26.842Z,5.80
2017-07-19T13:19:23.086Z,5.70
2017-07-19T13:20:19.334Z,5.80
2017-07-19T13:21:15.611Z,6.20
2017-07-19T13:22:11.874Z,5.90
2017-07-19T13:23:08.117Z,5.40
2017-07-19T13:24:04.380Z,5.90
2017-07-19T13:25:00.623Z,6.30
2017-07-19T13:25:56.899Z,6.30
2017-07-19T13:26:53.153Z,6.30
2017-07-19T13:27:49.405Z,6.70
2017-07-19T13:28:45.655Z,6.40
2017-07-19T13:29:41.918Z,6.50
2017-07-19T13:30:38.184Z,6.10
2017-07-19T13:31:34.434Z,10.30
2017-07-19T13:32:30.683Z,6.70
2017-07-19T13:33:26.943Z,6.40
2017-07-19T13:34:23.206Z,6.20
2017-07-19T13:35:19.450Z,5.90
2017-07-19T13:36:15.702Z,5.80
2017-07-19T13:37:11.950Z,6.70
2017-07-19T13:38:08.219Z,6.00
2017-07-19T13:39:04.499Z,6.80
2017-07-19T13:40:00.738Z,6.20
2017-07-19T13:40:57.002Z,5.90
2017-07-19T13:41:53.283Z,11.40
2017-07-19T13:42:49.547Z,5.80
2017-07-19T13:43:45.791Z,12.20
2017-07-19T13:44:42.035Z,5.90
2017-07-19T13:45:38.289Z,5.50
2017-07-19T13:46:34.583Z,5.40
2017-07-19T13:47:30.828Z,5.50
2017-07-19T13:48:27.084Z,6.70
2017-07-19T13:49:23.334Z,6.20
2017-07-19T13:50:19.588Z,6.30
2017-07-19T13:51:15.843Z,5.80
2017-07-19T13:52:12.110Z,5.50
2017-07-19T13:53:08.353Z,5.90
2017-07-19T13:54:04.611Z,6.40
2017-07-19T13:55:00.858Z,5.70
2017-07-19T13:55:57.108Z,6.80
2017-07-19T13:56:53.371Z,6.80
2017-07-19T13:57:49.655Z,5.80
2017-07-19T13:58:45.907Z,6.50
2017-07-19T13:59:42.162Z,5.90
2017-07-19T14:00:38.406Z,6.40
2017-07-19T14:01:34.679Z,6.60
2017-07-19T14:02:30.965Z,5.90
2017-07-19T14:03:27.223Z,5.80
2017-07-19T14:04:24.274Z,6.70
2017-07-19T14:05:20.519Z,6.30
2017-07-19T14:06:16.861Z,6.30
2017-07-19T14:07:13.106Z,6.50
2017-07-19T14:08:09.358Z,7.00
2017-07-19T14:09:05.614Z,7.20
2017-07-19T14:10:01.850Z,7.10
2017-07-19T14:10:58.111Z,5.60
2017-07-19T14:11:54.370Z,6.00
2017-07-19T14:12:50.622Z,6.00
2017-07-19T14:13:46.886Z,6.30
2017-07-19T14:14:43.130Z,6.60
2017-07-19T14:15:39.380Z,5.20
2017-07-19T14:16:35.622Z,6.00
2017-07-19T14:17:31.883Z,5.70
2017-07-19T14:18:28.134Z,8.50
2017-07-19T14:19:24.403Z,5.80
2017-07-19T14:20:20.669Z,5.80
2017-07-19T14:21:17.090Z,6.30
2017-07-19T14:22:13.423Z,6.70
2017-07-19T14:23:09.726Z,7.10
2017-07-19T14:24:06.003Z,6.20
2017-07-19T14:25:02.267Z,5.70
2017-07-19T14:25:58.531Z,6.30
2017-07-19T14:26:54.775Z,5.60
2017-07-19T14:27:51.023Z,6.30
2017-07-19T14:28:47.296Z,7.60
2017-07-19T14:29:43.572Z,5.80
2017-07-19T14:30:40.899Z,6.70
2017-07-19T14:31:37.204Z,6.00
2017-07-19T14:32:33.470Z,7.50
2017-07-19T14:33:29.732Z,7.30
2017-07-19T14:34:25.984Z,6.90
2017-07-19T14:35:22.258Z,7.20
2017-07-19T14:36:18.515Z,7.90
2017-07-19T14:37:14.762Z,6.40
2017-07-19T14:38:11.014Z,6.20
2017-07-19T14:39:07.267Z,6.80